Time;durP1;ratioP1;P1;durP2;ratioP2;P2;SDS_P1;SDS_P2;PMS_P1;PMS_P2;Temp;Humidity;BMP_temperature;BMP_pressure;BME280_temperature;BME280_humidity;BME280_pressure;Samples;Min_cycle;Max_cycle;Signal;HPM_P1;HPM_P2
2022/05/18 04:27:59;;;;;;;7.20;5.35;;;19.40;68.90;;;;;;4841212;29;20390;-75
2022/05/18 04:30:26;;;;;;;8.40;4.53;;;19.40;69.00;;;;;;4828144;29;20054;-76
2022/05/18 04:32:53;;;;;;;6.70;4.93;;;19.40;69.00;;;;;;4829196;29;20057;-72
2022/05/18 04:35:22;;;;;;;9.32;4.78;;;19.40;69.10;;;;;;4843890;29;20050;-76
2022/05/18 04:37:48;;;;;;;7.85;5.28;;;19.30;69.10;;;;;;4843992;29;20058;-77
2022/05/18 04:40:14;;;;;;;14.48;5.88;;;19.30;69.20;;;;;;4848581;29;20057;-75
2022/05/18 04:42:40;;;;;;;9.75;5.97;;;19.40;69.30;;;;;;4847223;29;20470;-77
2022/05/18 04:45:09;;;;;;;12.07;6.35;;;19.40;69.30;;;;;;4847715;29;20050;-76
2022/05/18 04:47:35;;;;;;;10.38;7.45;;;19.40;69.90;;;;;;4847224;29;20487;-77
2022/05/18 04:50:00;;;;;;;10.85;7.30;;;19.30;69.90;;;;;;4847607;29;20093;-78
2022/05/18 04:52:26;;;;;;;11.70;8.15;;;19.30;70.00;;;;;;4847309;29;20057;-76
2022/05/18 04:54:52;;;;;;;9.50;7.38;;;19.30;70.20;;;;;;4830873;29;20056;-75
2022/05/18 04:57:18;;;;;;;12.85;8.20;;;19.30;70.40;;;;;;4861998;29;20049;-83
2022/05/18 04:59:45;;;;;;;10.55;7.90;;;19.30;70.60;;;;;;4846858;29;20121;-76
2022/05/18 05:02:11;;;;;;;10.90;7.93;;;19.20;70.50;;;;;;4847621;29;20046;-72
2022/05/18 05:04:37;;;;;;;11.88;8.38;;;19.20;70.80;;;;;;4846820;29;20375;-71
2022/05/18 05:07:04;;;;;;;14.93;8.73;;;19.20;70.70;;;;;;4847275;29;20042;-77
2022/05/18 05:09:30;;;;;;;9.60;8.52;;;19.20;71.00;;;;;;4847378;29;20061;-72
2022/05/18 05:11:56;;;;;;;9.80;8.15;;;19.20;71.10;;;;;;4847180;29;20057;-77
2022/05/18 05:14:23;;;;;;;12.90;9.55;;;19.20;71.10;;;;;;4847267;29;20447;-80
2022/05/18 05:16:48;;;;;;;11.95;9.25;;;19.20;71.20;;;;;;4846218;29;20456;-77
2022/05/18 05:19:15;;;;;;;11.93;10.07;;;19.20;71.10;;;;;;4847143;29;20058;-77
2022/05/18 05:21:44;;;;;;;10.68;9.38;;;19.10;71.30;;;;;;4847102;29;20117;-79
2022/05/18 05:24:11;;;;;;;13.60;9.90;;;19.10;71.30;;;;;;4846900;29;20140;-77
2022/05/18 05:26:37;;;;;;;12.50;9.57;;;19.20;71.30;;;;;;4864867;29;20403;-76
2022/05/18 05:29:04;;;;;;;12.23;10.20;;;19.20;71.60;;;;;;4883223;29;20130;-77
2022/05/18 05:31:30;;;;;;;12.88;9.82;;;19.20;71.80;;;;;;4883829;29;20049;-73
2022/05/18 05:33:57;;;;;;;12.95;9.85;;;19.20;71.90;;;;;;4883648;29;20521;-74
2022/05/18 05:36:23;;;;;;;11.15;10.00;;;19.20;71.70;;;;;;4872167;29;20068;-76
2022/05/18 05:38:49;;;;;;;13.30;9.95;;;19.20;71.60;;;;;;4882969;29;20378;-76
2022/05/18 05:41:24;;;;;;;12.60;9.52;;;19.20;71.60;;;;;;4883320;29;20044;-79
2022/05/18 05:43:50;;;;;;;13.57;10.70;;;19.20;71.80;;;;;;4893613;29;20139;-77
2022/05/18 05:46:17;;;;;;;13.95;10.13;;;19.20;72.00;;;;;;4902497;29;20095;-79
2022/05/18 05:48:45;;;;;;;12.77;9.02;;;19.20;72.10;;;;;;4901771;29;20048;-78
2022/05/18 05:51:13;;;;;;;12.43;10.60;;;19.20;72.10;;;;;;4867176;29;20466;-74
2022/05/18 05:53:46;;;;;;;12.98;10.63;;;19.30;72.00;;;;;;4883412;29;20057;-80
2022/05/18 05:56:13;;;;;;;;;;;19.30;71.90;;;;;;4878062;29;20053;-77
2022/05/18 05:58:40;;;;;;;15.30;9.45;;;19.20;71.70;;;;;;4883324;29;20434;-77
2022/05/18 06:01:08;;;;;;;16.80;10.07;;;19.20;72.10;;;;;;4882243;29;20068;-76
2022/05/18 06:03:35;;;;;;;18.90;10.50;;;19.20;72.30;;;;;;4883073;29;20060;-77
2022/05/18 06:06:02;;;;;;;19.85;10.13;;;19.30;72.20;;;;;;4882171;29;20076;-78
2022/05/18 06:08:30;;;;;;;20.00;8.57;;;19.30;72.20;;;;;;4882355;29;20055;-76
2022/05/18 06:10:59;;;;;;;17.65;10.38;;;19.30;72.20;;;;;;4879379;29;20045;-75
2022/05/18 06:13:26;;;;;;;12.68;8.77;;;19.50;72.30;;;;;;4868805;29;20053;-78
2022/05/18 06:15:52;;;;;;;14.10;8.05;;;19.50;72.20;;;;;;4882289;29;20129;-80
2022/05/18 06:18:18;;;;;;;14.57;8.25;;;19.60;72.10;;;;;;4882928;29;20097;-78
2022/05/18 06:20:47;;;;;;;14.00;7.10;;;19.60;72.10;;;;;;4882715;29;20460;-79
2022/05/18 06:23:14;;;;;;;12.05;7.53;;;19.60;72.00;;;;;;4877164;29;20461;-78
2022/05/18 06:25:40;;;;;;;14.65;7.82;;;19.70;72.20;;;;;;4882690;29;20049;-77
2022/05/18 06:28:07;;;;;;;15.85;7.82;;;19.70;71.90;;;;;;4882580;29;20546;-78
2022/05/18 06:30:33;;;;;;;10.15;7.82;;;19.80;71.80;;;;;;4882627;29;20124;-78
2022/05/18 06:32:59;;;;;;;14.32;7.97;;;19.90;71.70;;;;;;4882863;29;20056;-78
2022/05/18 06:35:25;;;;;;;12.15;6.63;;;19.90;71.60;;;;;;4866624;29;20476;-77
2022/05/18 06:37:50;;;;;;;15.68;7.22;;;19.90;71.60;;;;;;4883157;29;20095;-78
2022/05/18 06:40:17;;;;;;;12.10;6.43;;;20.00;71.50;;;;;;4882867;29;20049;-78
2022/05/18 06:42:44;;;;;;;9.88;6.25;;;20.00;71.40;;;;;;4881446;29;20068;-80
2022/05/18 06:45:11;;;;;;;11.02;6.20;;;20.10;71.50;;;;;;4882384;29;20136;-78
2022/05/18 06:47:37;;;;;;;12.27;6.30;;;20.10;71.40;;;;;;4882421;29;20127;-78
2022/05/18 06:50:09;;;;;;;9.77;6.38;;;20.20;71.40;;;;;;4882156;29;20048;-79
2022/05/18 06:52:35;;;;;;;10.70;5.82;;;20.20;71.40;;;;;;4877553;29;20384;-76
2022/05/18 06:55:01;;;;;;;11.23;4.78;;;20.20;71.40;;;;;;4875463;29;20044;-78
2022/05/18 06:57:27;;;;;;;11.75;6.32;;;20.20;71.20;;;;;;4882681;29;20348;-80
2022/05/18 06:59:53;;;;;;;18.52;7.60;;;20.20;71.10;;;;;;4879662;29;20090;-79
2022/05/18 07:02:18;;;;;;;13.38;9.25;;;20.30;70.70;;;;;;4881700;29;20045;-77
2022/05/18 07:04:44;;;;;;;15.05;11.15;;;20.40;70.40;;;;;;4883896;29;20068;-78
2022/05/18 07:07:10;;;;;;;14.55;9.25;;;20.30;69.90;;;;;;4891291;29;20131;-79
2022/05/18 07:09:36;;;;;;;16.13;10.18;;;20.30;70.20;;;;;;4863228;29;20144;-81
2022/05/18 07:12:02;;;;;;;16.17;9.55;;;20.30;70.60;;;;;;4881339;29;20122;-79
2022/05/18 07:14:29;;;;;;;13.25;9.45;;;20.30;71.10;;;;;;4885649;29;20051;-79
2022/05/18 07:16:56;;;;;;;13.85;10.50;;;20.40;70.90;;;;;;4883878;29;20063;-77
2022/05/18 07:19:23;;;;;;;14.35;11.25;;;20.40;70.00;;;;;;4884297;29;20049;-75
2022/05/18 07:21:49;;;;;;;13.77;10.85;;;20.40;69.20;;;;;;4900899;29;20037;-73
2022/05/18 07:24:15;;;;;;;14.10;10.63;;;20.40;69.10;;;;;;4900429;29;20059;-74
2022/05/18 07:26:42;;;;;;;15.82;10.38;;;20.40;69.50;;;;;;4883719;29;20064;-74
2022/05/18 07:29:08;;;;;;;13.52;10.77;;;20.30;69.80;;;;;;4892077;29;20049;-75
2022/05/18 07:34:21;;;;;;;15.63;9.40;;;20.30;72.70;;;;;;4881427;29;20380;-74
2022/05/18 07:36:51;;;;;;;13.35;9.48;;;20.30;72.50;;;;;;4865542;29;20045;-76
2022/05/18 07:39:16;;;;;;;13.13;8.82;;;20.30;73.20;;;;;;4881923;29;20362;-75
2022/05/18 07:41:43;;;;;;;17.55;8.25;;;20.30;73.10;;;;;;4881674;29;20131;-76
2022/05/18 07:44:09;;;;;;;12.07;8.05;;;20.30;73.00;;;;;;4881630;29;20370;-76
2022/05/18 07:46:35;;;;;;;12.70;7.68;;;20.30;72.90;;;;;;4882083;29;20049;-81
2022/05/18 07:49:02;;;;;;;19.60;9.30;;;20.40;71.90;;;;;;4864997;29;20343;-83
2022/05/18 07:51:27;;;;;;;10.82;8.18;;;20.40;71.40;;;;;;4891350;29;20041;-76
2022/05/18 07:53:53;;;;;;;11.90;7.13;;;20.40;71.80;;;;;;4882855;29;20101;-77
2022/05/18 07:56:19;;;;;;;11.95;6.80;;;20.40;71.90;;;;;;4881390;29;20454;-77
2022/05/18 07:58:45;;;;;;;12.27;6.80;;;20.40;71.80;;;;;;4881648;29;20045;-76
2022/05/18 08:01:11;;;;;;;10.10;6.85;;;20.50;71.90;;;;;;4864997;29;20362;-77
2022/05/18 08:03:37;;;;;;;12.70;6.22;;;20.50;71.70;;;;;;4883928;29;20049;-76
2022/05/18 08:06:02;;;;;;;11.93;6.90;;;20.50;71.60;;;;;;4881148;29;20473;-75
2022/05/18 08:08:28;;;;;;;7.63;5.32;;;20.50;71.60;;;;;;4878347;29;20123;-76
2022/05/18 08:16:25;;;;;;;15.30;11.23;;;20.60;70.50;;;;;;4881060;29;20143;-76
2022/05/18 08:18:51;;;;;;;14.38;11.88;;;20.70;70.00;;;;;;4881034;29;20053;-75
2022/05/18 08:21:17;;;;;;;17.17;13.02;;;20.70;70.00;;;;;;4881186;29;20144;-76
2022/05/18 08:23:43;;;;;;;21.10;13.88;;;20.70;69.80;;;;;;4879866;29;20453;-75
2022/05/18 08:26:09;;;;;;;16.08;12.85;;;20.70;69.60;;;;;;4879323;29;20373;-76
2022/05/18 08:28:36;;;;;;;18.40;13.02;;;20.70;69.90;;;;;;4880351;29;20041;-74
2022/05/18 08:31:02;;;;;;;17.30;13.07;;;20.70;69.30;;;;;;4880712;29;20052;-75
2022/05/18 08:33:31;;;;;;;15.52;12.70;;;20.80;68.80;;;;;;4880503;29;20053;-73
2022/05/18 08:35:58;;;;;;;16.63;12.30;;;20.70;68.80;;;;;;4880644;29;20078;-75
2022/05/18 08:38:23;;;;;;;16.48;11.73;;;20.80;69.50;;;;;;4881004;29;20217;-75
2022/05/18 08:41:07;;;;;;;15.07;11.60;;;20.80;69.80;;;;;;4880486;29;20132;-70
2022/05/18 08:43:34;;;;;;;15.05;11.00;;;20.80;69.60;;;;;;4880881;29;20037;-69
2022/05/18 08:46:05;;;;;;;12.23;8.82;;;20.80;69.80;;;;;;4880829;29;20048;-74
2022/05/18 08:48:42;;;;;;;13.80;10.50;;;20.80;69.90;;;;;;4849658;29;20059;-76
2022/05/18 08:51:35;;;;;;;11.75;9.23;;;20.90;70.10;;;;;;4849046;29;20044;-74
2022/05/18 08:54:03;;;;;;;11.85;9.02;;;20.90;70.20;;;;;;4880907;29;20049;-73
2022/05/18 08:56:36;;;;;;;13.77;8.35;;;20.90;70.20;;;;;;4865962;29;20055;-74
2022/05/18 08:59:09;;;;;;;11.65;7.95;;;20.90;70.00;;;;;;4880797;29;20056;-74
2022/05/18 09:01:46;;;;;;;10.35;7.85;;;21.00;70.10;;;;;;4880667;29;20078;-73
2022/05/18 09:04:16;;;;;;;10.55;8.15;;;21.00;69.90;;;;;;4864400;29;20487;-72
2022/05/18 09:06:53;;;;;;;10.73;7.05;;;21.00;69.90;;;;;;4880908;29;20052;-74
2022/05/18 09:12:31;;;;;;;8.40;7.30;;;21.00;70.00;;;;;;4862321;29;20045;-75
2022/05/18 09:14:59;;;;;;;16.95;11.32;;;21.10;70.00;;;;;;4868879;29;20121;-79
2022/05/18 09:17:45;;;;;;;13.00;9.73;;;21.10;68.90;;;;;;4871653;29;20049;-83
2022/05/18 09:20:54;;;;;;;16.80;13.15;;;21.20;68.60;;;;;;4875196;29;20080;-82
2022/05/18 09:23:50;;;;;;;17.20;9.80;;;21.10;68.30;;;;;;4803055;29;20068;-84
2022/05/18 09:26:19;;;;;;;16.52;11.13;;;21.20;68.50;;;;;;4829565;29;20055;-77
2022/05/18 09:28:55;;;;;;;12.25;9.70;;;21.20;68.90;;;;;;4865358;29;20063;-78
2022/05/18 09:31:26;;;;;;;11.27;8.73;;;21.10;69.00;;;;;;4883678;29;20048;-77
2022/05/18 09:34:14;;;;;;;15.80;8.95;;;21.10;69.10;;;;;;4884069;29;20606;-78
2022/05/18 09:37:13;;;;;;;11.10;8.50;;;21.10;69.10;;;;;;4853864;29;20057;-78
2022/05/18 09:39:46;;;;;;;12.75;7.93;;;21.10;69.20;;;;;;4883166;29;20142;-77
2022/05/18 09:42:16;;;;;;;10.52;7.53;;;21.20;69.20;;;;;;4883544;29;20449;-76
2022/05/18 09:44:51;;;;;;;9.65;7.22;;;21.20;69.20;;;;;;4881398;29;20446;-76
2022/05/18 09:47:23;;;;;;;8.20;6.55;;;21.20;69.30;;;;;;4882981;29;20053;-76
2022/05/18 09:49:52;;;;;;;8.73;6.32;;;21.20;69.30;;;;;;4863271;29;20085;-76
2022/05/18 09:52:21;;;;;;;12.48;8.23;;;21.20;69.40;;;;;;4866900;29;20049;-76
2022/05/18 09:54:50;;;;;;;9.90;6.50;;;21.20;69.30;;;;;;4883692;29;20480;-77
2022/05/18 09:57:24;;;;;;;11.45;6.75;;;21.20;69.30;;;;;;4883704;29;20052;-77
2022/05/18 09:59:56;;;;;;;7.63;5.75;;;21.20;69.30;;;;;;4883751;29;20061;-76
2022/05/18 10:07:59;;;;;;;8.40;6.63;;;21.20;69.20;;;;;;4883480;29;20438;-77
2022/05/18 10:10:32;;;;;;;11.13;7.53;;;21.20;69.20;;;;;;4883444;29;20131;-77
2022/05/18 10:13:18;;;;;;;11.45;7.18;;;21.20;69.20;;;;;;4882131;29;20053;-77
2022/05/18 10:15:47;;;;;;;10.60;6.72;;;21.20;69.10;;;;;;4882343;29;20287;-76
2022/05/18 10:18:17;;;;;;;7.82;6.32;;;21.20;69.10;;;;;;4883267;29;20410;-76
2022/05/18 10:21:20;;;;;;;7.60;5.72;;;21.20;69.00;;;;;;4883594;29;20056;-77
2022/05/18 10:23:51;;;;;;;9.60;6.88;;;21.20;68.90;;;;;;4882545;29;20073;-77
2022/05/18 10:26:34;;;;;;;9.27;6.63;;;21.20;69.00;;;;;;4882797;29;20053;-76
2022/05/18 10:29:20;;;;;;;8.00;5.53;;;21.20;68.90;;;;;;4891236;29;20048;-76
2022/05/18 10:32:02;;;;;;;6.20;5.40;;;21.20;68.90;;;;;;4883187;29;20426;-77
2022/05/18 10:34:39;;;;;;;8.80;5.93;;;21.20;68.90;;;;;;4850870;29;20044;-76
2022/05/18 10:37:10;;;;;;;7.50;5.10;;;21.20;68.80;;;;;;4881593;29;20045;-77
2022/05/18 10:39:46;;;;;;;9.05;5.93;;;21.30;68.80;;;;;;4866850;29;20126;-76
2022/05/18 10:42:27;;;;;;;6.85;4.45;;;21.30;68.80;;;;;;4881724;29;20041;-77
2022/05/18 10:44:55;;;;;;;6.43;4.50;;;21.30;68.70;;;;;;4882297;29;20049;-77
2022/05/18 10:47:34;;;;;;;8.10;4.82;;;21.30;68.70;;;;;;4881926;29;20049;-78
2022/05/18 10:50:34;;;;;;;7.88;5.30;;;21.30;68.70;;;;;;4866215;29;20053;-77
2022/05/18 10:53:19;;;;;;;6.07;4.00;;;21.30;68.60;;;;;;4863091;29;20049;-76
2022/05/18 10:56:07;;;;;;;4.75;3.78;;;21.30;68.60;;;;;;4879453;29;20088;-78
2022/05/18 10:58:39;;;;;;;5.70;3.95;;;21.20;68.50;;;;;;4865357;29;20362;-77
2022/05/18 11:01:22;;;;;;;6.93;5.10;;;21.30;69.10;;;;;;4882582;29;20407;-78
2022/05/18 11:04:03;;;;;;;7.97;4.63;;;21.30;68.50;;;;;;4882523;29;20486;-77
2022/05/18 11:06:33;;;;;;;6.57;4.35;;;21.30;68.50;;;;;;4870417;29;20638;-77
2022/05/18 11:09:03;;;;;;;7.78;4.57;;;21.30;68.40;;;;;;4881342;29;20430;-77
2022/05/18 11:12:13;;;;;;;5.97;4.25;;;21.30;68.40;;;;;;4880941;29;20060;-78
2022/05/18 11:14:55;;;;;;;5.53;3.83;;;21.30;68.40;;;;;;4868701;29;20068;-77
2022/05/18 11:17:36;;;;;;;6.15;3.75;;;21.30;68.30;;;;;;4865866;29;20064;-85
2022/05/18 11:20:43;;;;;;;8.98;5.97;;;21.30;68.20;;;;;;4865392;29;20057;-78
2022/05/18 11:23:34;;;;;;;8.38;4.63;;;21.30;68.20;;;;;;4886485;29;20041;-77
2022/05/18 11:26:37;;;;;;;5.88;4.22;;;21.30;68.20;;;;;;4881846;29;20351;-79
2022/05/18 11:29:29;;;;;;;12.45;4.47;;;21.30;68.30;;;;;;4892081;29;20040;-77
2022/05/18 11:32:13;;;;;;;7.78;5.30;;;21.30;68.40;;;;;;4882334;29;20120;-77
2022/05/18 11:34:57;;;;;;;8.95;5.28;;;21.30;68.40;;;;;;4851646;29;20132;-77
2022/05/18 11:37:48;;;;;;;8.77;4.53;;;21.30;68.40;;;;;;4881775;29;20045;-76
2022/05/18 11:40:30;;;;;;;7.57;5.10;;;21.30;68.40;;;;;;4881566;29;20378;-78
2022/05/18 11:43:25;;;;;;;8.35;4.05;;;21.30;68.50;;;;;;4882299;29;20041;-77
2022/05/18 11:46:29;;;;;;;8.50;5.28;;;21.30;68.20;;;;;;4881289;29;20052;-77
2022/05/18 11:49:18;;;;;;;6.45;4.65;;;21.30;68.60;;;;;;4870084;29;20045;-77
2022/05/18 11:52:22;;;;;;;8.75;5.78;;;21.40;68.80;;;;;;4881468;29;20573;-76
2022/05/18 11:54:56;;;;;;;7.90;5.57;;;21.30;68.70;;;;;;4868562;29;20438;-77
2022/05/18 11:57:39;;;;;;;9.15;4.72;;;21.30;68.80;;;;;;4880651;29;20053;-77
2022/05/18 12:03:35;;;;;;;10.10;5.60;;;21.40;68.80;;;;;;4880406;29;20061;-76
2022/05/18 12:06:37;;;;;;;8.57;5.70;;;21.40;68.80;;;;;;4880479;29;20059;-77
2022/05/18 12:09:14;;;;;;;7.53;5.20;;;21.40;68.80;;;;;;4869933;29;20465;-76
2022/05/18 12:12:01;;;;;;;7.28;5.38;;;21.40;68.80;;;;;;4881373;29;20107;-76
2022/05/18 12:15:02;;;;;;;16.75;5.68;;;21.40;68.70;;;;;;4880910;29;20045;-76
2022/05/18 12:17:44;;;;;;;9.50;5.32;;;21.40;68.70;;;;;;4880497;29;20053;-76
2022/05/18 12:20:35;;;;;;;7.35;4.53;;;21.40;68.60;;;;;;4881084;29;20052;-76
2022/05/18 12:23:05;;;;;;;10.93;5.93;;;21.40;68.50;;;;;;4880464;29;20077;-76
2022/05/18 12:25:32;;;;;;;7.05;4.63;;;21.40;68.50;;;;;;4880464;29;20075;-77
2022/05/18 12:28:01;;;;;;;7.07;5.25;;;21.40;68.40;;;;;;4890398;29;20385;-76
2022/05/18 12:30:31;;;;;;;12.35;6.28;;;21.40;68.30;;;;;;4881116;29;20132;-77
2022/05/18 12:32:57;;;;;;;13.63;8.02;;;21.40;68.30;;;;;;4880981;29;20121;-77
2022/05/18 12:35:32;;;;;;;10.40;5.65;;;21.40;68.30;;;;;;4879804;29;20056;-76
2022/05/18 12:38:32;;;;;;;13.13;7.18;;;21.40;68.30;;;;;;4880873;29;20053;-77
2022/05/18 12:41:21;;;;;;;10.70;6.18;;;21.40;68.30;;;;;;4869716;29;20060;-76
2022/05/18 12:43:50;;;;;;;13.82;5.22;;;21.40;68.20;;;;;;4880887;29;20124;-77
2022/05/18 12:46:16;;;;;;;10.98;5.07;;;21.40;68.20;;;;;;4880492;29;20041;-77
2022/05/18 12:48:54;;;;;;;9.02;6.28;;;21.40;68.10;;;;;;4880866;29;20056;-77
2022/05/18 12:51:31;;;;;;;9.15;5.32;;;21.40;68.10;;;;;;4880947;29;20056;-77
2022/05/18 12:54:09;;;;;;;7.40;5.18;;;21.50;68.10;;;;;;4880383;29;20056;-76
2022/05/18 12:56:35;;;;;;;10.05;5.38;;;21.40;68.10;;;;;;4866389;29;20053;-77
2022/05/18 12:59:11;;;;;;;10.60;4.95;;;21.40;68.00;;;;;;4880671;29;20041;-77
2022/05/18 13:01:41;;;;;;;10.57;4.65;;;21.50;68.00;;;;;;4882444;29;20052;-76
2022/05/18 13:04:09;;;;;;;9.30;5.28;;;21.50;68.00;;;;;;4884611;29;20057;-77
2022/05/18 13:06:42;;;;;;;8.57;4.75;;;21.50;67.90;;;;;;4884277;29;20121;-77
2022/05/18 13:09:29;;;;;;;7.65;4.30;;;21.50;67.90;;;;;;4883975;29;20045;-77
2022/05/18 13:12:24;;;;;;;6.85;4.13;;;21.50;67.80;;;;;;4884480;29;20068;-76
2022/05/18 13:15:07;;;;;;;6.15;3.60;;;21.50;67.80;;;;;;4881321;29;20369;-77
2022/05/18 13:18:12;;;;;;;8.85;5.38;;;21.50;67.80;;;;;;4882137;29;20056;-77
2022/05/18 13:20:53;;;;;;;7.63;4.50;;;21.50;67.60;;;;;;4847461;29;20212;-77
2022/05/18 13:23:25;;;;;;;6.50;3.15;;;21.50;67.60;;;;;;4881646;29;20103;-76
2022/05/18 13:26:09;;;;;;;13.75;8.60;;;21.50;67.60;;;;;;4883513;29;20144;-85
2022/05/18 13:28:42;;;;;;;13.95;8.70;;;21.50;66.60;;;;;;4873589;29;20049;-95
2022/05/18 13:31:08;;;;;;;13.25;7.30;;;21.50;66.60;;;;;;4864083;29;20498;-79
2022/05/18 13:33:42;;;;;;;8.30;5.10;;;21.40;66.70;;;;;;4891613;29;20442;-78
2022/05/18 13:36:08;;;;;;;9.43;5.93;;;21.40;66.90;;;;;;4883823;29;20113;-77
2022/05/18 13:38:34;;;;;;;10.40;5.43;;;21.40;67.10;;;;;;4883663;29;20057;-78
2022/05/18 13:41:06;;;;;;;12.10;5.80;;;21.40;67.20;;;;;;4882658;29;20069;-78
2022/05/18 13:43:35;;;;;;;11.50;6.55;;;21.40;67.20;;;;;;4883515;29;20041;-78
2022/05/18 13:46:16;;;;;;;9.70;5.45;;;21.40;67.30;;;;;;4882379;29;20045;-78
2022/05/18 13:48:45;;;;;;;9.88;5.20;;;21.40;67.20;;;;;;4853198;29;20077;-78
2022/05/18 13:51:14;;;;;;;8.18;4.65;;;21.40;67.30;;;;;;4883346;29;20041;-77
2022/05/18 13:53:55;;;;;;;11.38;4.72;;;21.40;67.30;;;;;;4883651;29;20373;-78
2022/05/18 13:56:25;;;;;;;9.43;4.70;;;21.50;67.30;;;;;;4880438;29;20057;-78
2022/05/18 13:58:56;;;;;;;13.77;4.63;;;21.40;67.30;;;;;;4867176;29;20037;-78
2022/05/18 14:01:29;;;;;;;8.60;4.90;;;21.50;67.30;;;;;;4883307;29;20473;-77
2022/05/18 14:03:56;;;;;;;9.23;4.60;;;21.50;67.10;;;;;;4883209;29;20049;-77
2022/05/18 14:06:24;;;;;;;7.55;4.35;;;21.50;67.20;;;;;;4883445;29;20118;-76
2022/05/18 14:08:57;;;;;;;8.05;3.80;;;21.50;67.20;;;;;;4883303;29;20041;-76
2022/05/18 14:11:26;;;;;;;8.90;4.60;;;21.50;67.80;;;;;;4883104;29;20120;-78
2022/05/18 14:13:52;;;;;;;6.88;3.47;;;21.50;67.20;;;;;;4882976;29;20386;-78
2022/05/18 14:16:40;;;;;;;9.02;3.50;;;21.50;67.10;;;;;;4883198;29;20048;-78
2022/05/18 14:19:08;;;;;;;7.57;3.40;;;21.50;67.10;;;;;;4883389;29;20052;-78
2022/05/18 14:21:37;;;;;;;9.27;3.05;;;21.50;67.20;;;;;;4866524;29;20120;-79
2022/05/18 14:24:12;;;;;;;6.57;3.03;;;21.60;67.40;;;;;;4883009;29;20055;-76
2022/05/18 14:26:56;;;;;;;9.10;3.25;;;21.60;67.40;;;;;;4863255;29;20055;-75
2022/05/18 14:29:33;;;;;;;9.15;3.35;;;21.50;67.40;;;;;;4864437;29;20052;-77
2022/05/18 14:32:04;;;;;;;9.25;3.88;;;21.60;67.60;;;;;;4881450;29;20044;-83
2022/05/18 14:34:44;;;;;;;6.68;3.10;;;21.60;67.50;;;;;;4850930;29;20060;-76
2022/05/18 14:37:17;;;;;;;5.85;2.53;;;21.60;67.60;;;;;;4880231;29;20052;-85
2022/05/18 14:40:08;;;;;;;13.65;6.10;;;21.60;68.00;;;;;;4882680;29;20048;-82
2022/05/18 14:42:53;;;;;;;13.65;7.32;;;21.60;68.40;;;;;;4843617;29;20080;-82
2022/05/18 14:45:55;;;;;;;14.82;5.50;;;21.60;69.80;;;;;;4843604;29;20053;-76
2022/05/18 14:48:25;;;;;;;10.32;5.32;;;21.80;69.10;;;;;;4843340;29;20460;-81
2022/05/18 14:50:51;;;;;;;10.98;4.95;;;21.80;70.30;;;;;;4843518;29;20049;-82
2022/05/18 14:53:22;;;;;;;9.02;4.18;;;21.90;67.90;;;;;;4842317;29;20058;-82
2022/05/18 14:56:17;;;;;;;9.38;4.32;;;22.00;68.10;;;;;;4827968;29;20337;-82
2022/05/18 14:58:55;;;;;;;8.80;4.60;;;22.00;68.10;;;;;;4828680;29;20400;-80
2022/05/18 15:01:41;;;;;;;10.93;4.82;;;21.90;66.80;;;;;;4843402;29;20056;-77
2022/05/18 15:04:28;;;;;;;8.48;4.05;;;21.90;65.70;;;;;;4828283;29;20050;-79
2022/05/18 15:06:59;;;;;;;7.22;4.20;;;21.80;65.30;;;;;;4828157;29;20068;-72
2022/05/18 15:09:46;;;;;;;9.30;3.75;;;21.70;64.10;;;;;;4843472;29;20133;-74
2022/05/18 15:12:19;;;;;;;7.63;3.35;;;21.70;63.80;;;;;;4845288;29;20136;-80
2022/05/18 15:15:12;;;;;;;6.85;2.88;;;21.60;63.70;;;;;;4863243;29;20065;-80
2022/05/18 15:17:45;;;;;;;7.65;2.83;;;21.60;63.80;;;;;;4847530;29;20049;-77
2022/05/18 15:20:26;;;;;;;7.28;2.95;;;21.60;64.30;;;;;;4863590;29;20053;-89
2022/05/18 15:22:56;;;;;;;7.70;2.63;;;21.60;64.60;;;;;;4861873;29;20049;-81
2022/05/18 15:25:37;;;;;;;5.15;2.13;;;21.60;65.00;;;;;;4863558;29;20359;-82
2022/05/18 15:28:18;;;;;;;5.22;1.90;;;21.70;66.40;;;;;;4862703;29;20093;-82
2022/05/18 15:30:55;;;;;;;6.40;2.30;;;21.70;66.50;;;;;;4846666;29;20054;-81
2022/05/18 15:33:21;;;;;;;5.82;1.90;;;21.70;66.80;;;;;;4862657;29;20140;-81
2022/05/18 15:36:00;;;;;;;5.05;1.95;;;21.70;67.10;;;;;;4878548;29;20052;-86
2022/05/18 15:38:30;;;;;;;8.35;1.90;;;21.80;67.40;;;;;;4893038;29;20071;-85
2022/05/18 15:40:57;;;;;;;4.90;1.77;;;21.80;67.70;;;;;;4867778;29;20056;-86
2022/05/18 15:43:24;;;;;;;11.98;2.70;;;21.80;67.80;;;;;;4868024;29;20052;-85
2022/05/18 15:45:56;;;;;;;6.80;2.30;;;21.80;68.00;;;;;;4898591;29;20052;-86
2022/05/18 15:48:22;;;;;;;11.68;2.60;;;21.80;67.60;;;;;;4875768;29;20146;-79
2022/05/18 15:50:48;;;;;;;4.18;1.65;;;21.90;67.40;;;;;;4880212;29;20461;-83
2022/05/18 15:57:33;;;;;;;9.30;2.17;;;21.90;66.30;;;;;;4823276;29;20484;-87
2022/05/18 15:59:58;;;;;;;7.68;1.70;;;21.90;66.10;;;;;;4838898;29;20060;-84
2022/05/18 16:02:25;;;;;;;6.45;2.20;;;21.90;65.60;;;;;;4855943;29;20053;-85
2022/05/18 16:04:51;;;;;;;10.07;2.30;;;21.90;66.60;;;;;;4864225;29;20071;-86
2022/05/18 16:07:18;;;;;;;8.80;2.25;;;21.90;66.20;;;;;;4864610;29;20053;-81
2022/05/18 16:09:44;;;;;;;5.75;1.25;;;21.90;66.40;;;;;;4881744;29;20128;-83
2022/05/18 16:12:12;;;;;;;9.32;2.15;;;21.90;66.70;;;;;;4899512;29;20060;-81
2022/05/18 16:14:38;;;;;;;7.75;1.27;;;21.90;66.90;;;;;;4851999;29;20052;-82
2022/05/18 16:17:09;;;;;;;6.93;1.65;;;22.00;67.00;;;;;;4880342;29;20140;-85
2022/05/18 16:19:37;;;;;;;12.52;1.80;;;22.00;67.10;;;;;;4878473;29;20454;-85
2022/05/18 16:22:04;;;;;;;8.90;1.67;;;22.00;67.20;;;;;;4880786;29;20052;-84
2022/05/18 16:24:34;;;;;;;8.38;1.70;;;22.00;67.20;;;;;;4863813;29;20224;-85
2022/05/18 16:27:05;;;;;;;10.57;1.75;;;22.00;67.10;;;;;;4824896;29;1169966;-83
2022/05/18 16:29:34;;;;;;;15.82;2.13;;;22.10;67.00;;;;;;4849519;29;20116;-85
2022/05/18 16:32:00;;;;;;;18.02;1.98;;;22.10;66.70;;;;;;4878317;29;20053;-84
2022/05/18 16:34:26;;;;;;;9.90;1.95;;;22.00;66.50;;;;;;4848381;29;20093;-84
2022/05/18 16:36:53;;;;;;;7.20;1.83;;;22.00;66.50;;;;;;4865021;29;20056;-85
2022/05/18 16:39:19;;;;;;;11.82;2.00;;;22.00;66.50;;;;;;4865268;29;20045;-84
2022/05/18 16:41:46;;;;;;;4.63;1.25;;;22.00;66.60;;;;;;4849629;29;20068;-85
2022/05/18 16:44:16;;;;;;;10.23;1.50;;;22.00;66.70;;;;;;4879838;29;20056;-86
2022/05/18 16:46:44;;;;;;;6.80;2.00;;;22.00;66.70;;;;;;4880501;29;20057;-87
2022/05/18 16:49:10;;;;;;;5.70;1.45;;;22.00;66.80;;;;;;4848450;29;20048;-86
2022/05/18 16:51:36;;;;;;;3.45;1.17;;;22.00;66.90;;;;;;4878814;29;20188;-86
2022/05/18 16:54:03;;;;;;;3.70;1.23;;;22.00;66.90;;;;;;4880139;29;20187;-86
2022/05/18 16:56:31;;;;;;;7.68;2.05;;;22.10;66.90;;;;;;4863982;29;20135;-86
2022/05/18 16:58:57;;;;;;;7.72;1.17;;;22.10;66.80;;;;;;4880428;29;20057;-83
2022/05/18 17:01:25;;;;;;;10.27;1.65;;;22.00;67.10;;;;;;4864682;29;20427;-79
2022/05/18 17:03:51;;;;;;;5.95;1.35;;;22.10;67.10;;;;;;4880065;29;20080;-79
2022/05/18 17:06:19;;;;;;;10.40;1.70;;;22.10;67.10;;;;;;4880818;29;20518;-81
2022/05/18 17:08:51;;;;;;;8.75;1.73;;;22.10;67.20;;;;;;4864400;29;20064;-81
2022/05/18 17:11:19;;;;;;;8.32;1.95;;;22.10;67.40;;;;;;4864742;29;20057;-81
2022/05/18 17:13:47;;;;;;;10.77;1.98;;;22.10;67.40;;;;;;4876771;29;20067;-81
2022/05/18 17:16:16;;;;;;;7.82;1.88;;;22.10;67.40;;;;;;4880424;29;20109;-81
2022/05/18 17:18:42;;;;;;;6.35;1.27;;;22.10;67.50;;;;;;4878313;29;20045;-82
2022/05/18 17:21:08;;;;;;;6.43;1.38;;;22.10;66.70;;;;;;4879419;29;20478;-82
2022/05/18 17:23:37;;;;;;;7.72;1.67;;;22.10;66.60;;;;;;4880072;29;20067;-82
2022/05/18 17:26:07;;;;;;;6.45;1.70;;;22.10;67.10;;;;;;4895094;29;20041;-81
2022/05/18 17:28:41;;;;;;;9.40;2.08;;;22.10;67.30;;;;;;4880979;29;20060;-81
2022/05/18 17:31:08;;;;;;;6.63;1.75;;;22.10;67.60;;;;;;4880719;29;20451;-79
2022/05/18 17:33:36;;;;;;;11.65;1.80;;;22.20;65.90;;;;;;4880667;29;20045;-81
2022/05/18 17:36:03;;;;;;;7.93;1.50;;;22.10;66.10;;;;;;4880813;29;20049;-79
2022/05/18 17:38:31;;;;;;;9.93;1.83;;;22.00;66.20;;;;;;4880222;29;20121;-82
2022/05/18 17:41:01;;;;;;;15.05;3.22;;;22.00;66.00;;;;;;4880068;29;20130;-80
2022/05/18 17:43:30;;;;;;;14.25;2.70;;;22.00;66.00;;;;;;4880300;29;20113;-81
2022/05/18 17:45:59;;;;;;;16.83;3.47;;;22.00;66.00;;;;;;4865774;29;20064;-80
2022/05/18 17:48:25;;;;;;;15.77;2.67;;;22.00;66.20;;;;;;4871999;29;20057;-80
2022/05/18 17:50:53;;;;;;;8.05;1.67;;;22.00;66.40;;;;;;4883865;29;20127;-79
2022/05/18 17:53:19;;;;;;;12.25;2.00;;;22.00;66.40;;;;;;4883835;29;20041;-79
2022/05/18 17:55:45;;;;;;;10.98;2.03;;;22.00;66.50;;;;;;4883719;29;20056;-79
2022/05/18 17:58:11;;;;;;;9.65;1.73;;;22.00;66.50;;;;;;4883971;29;20071;-79
2022/05/18 18:00:38;;;;;;;6.53;1.38;;;22.00;66.50;;;;;;4883924;29;20057;-79